Airfield :
LOGIN :

Register | Disclaimer

   EN    FR    IT 

 










Legend :    VFR   Marginal VFR   IFR   Intensive IFR   Very Intensive IFR
Visi :
Ceiling :
>= 8 km
>= 3000ft
5 to 8 km
1000 to 3000 ft
1500m to 5 km
500 to 1000 ft
800 to 1500m
200 to 500 ft
< 800m
< 200 ft
Symbols :   Thunderstorms  Fog  Heavy snow  Heavy precipitations  Wind > 20 kt
SIGMETs :     Misc.  Thunderstorms  Icing  Turbulence  Mountain Waves  Volcanic Ashes







- Airport Elevation : 2697 ft
- IATA code : BLJ


DABT - Batna

CURRENT METAR :
  • 251200Z 32004KT 9999 FEW026 SCT200 26/03 Q1014

EXPIRED METARs :
  • 251100Z 34005KT 9999 FEW026 SCT200 24/04 Q1014
  • 251000Z 35005KT CAVOK 22/03 Q1015

TAF TAF DABT
Valid from the 25 at 12:00 until the 26 at 12:00 UTC


251100Z 2512/2612 32008KT CAVOK
PROB40
TEMPO 2514/2518 FEW030TCU
BECMG 2518/2520 VRB02KT
BECMG 2609/2612 22010KT
No reported NOTAMs for that airfield.



MET'MAP, your aeronautical weather chart ! - Copyright ORBIFLY December 2007 - Disclaimer

ORBIFLY MET'MAP TEAM :

Programming & Development : Alexandra Zaïnal
Concept & Development : Baudouin d'Aumeries
Co-Development & Prog : Marc-Olivier Méhu
Technical & hardware support : Manuel Goepfert

Contact : metmap@orbifly.com




SOURCES & CREDITS :

   NOAA